createdAt,value
2018-08-13T00:00:02.529Z,27.50
2018-08-13T00:02:31.165Z,25.77
2018-08-13T00:04:59.796Z,26.80
2018-08-13T00:07:28.342Z,26.70
2018-08-13T00:09:57.025Z,26.00
2018-08-13T00:12:25.656Z,24.17
2018-08-13T00:14:54.265Z,28.37
2018-08-13T00:17:22.849Z,25.33
2018-08-13T00:19:51.460Z,26.60
2018-08-13T00:22:20.144Z,26.47
2018-08-13T00:24:48.872Z,25.07
2018-08-13T00:27:17.703Z,26.67
2018-08-13T00:29:46.631Z,25.47
2018-08-13T00:32:15.580Z,25.20
2018-08-13T00:34:44.355Z,26.83
2018-08-13T00:37:13.070Z,26.17
2018-08-13T00:39:41.692Z,26.43
2018-08-13T00:42:10.416Z,27.37
2018-08-13T00:44:39.413Z,24.87
2018-08-13T00:47:08.627Z,25.13
2018-08-13T00:49:37.513Z,26.57
2018-08-13T00:52:06.386Z,26.20
2018-08-13T00:54:35.054Z,25.77
2018-08-13T00:57:03.633Z,26.63
2018-08-13T00:59:32.286Z,25.30
2018-08-13T01:02:00.888Z,24.67
2018-08-13T01:04:29.501Z,25.53
2018-08-13T01:06:58.126Z,26.47
2018-08-13T01:09:26.716Z,26.33
2018-08-13T01:11:55.428Z,26.53
2018-08-13T01:14:24.188Z,26.07
2018-08-13T01:16:52.976Z,26.33
2018-08-13T01:19:21.886Z,25.83
2018-08-13T01:21:50.849Z,24.83
2018-08-13T01:24:20.630Z,24.73
2018-08-13T01:26:49.533Z,25.57
2018-08-13T01:29:18.326Z,23.60
2018-08-13T01:31:46.963Z,25.17
2018-08-13T01:34:15.625Z,27.67
2018-08-13T01:36:44.197Z,26.03
2018-08-13T01:39:13.009Z,26.57
2018-08-13T01:41:41.645Z,26.73
2018-08-13T01:44:10.301Z,26.47
2018-08-13T01:46:39.046Z,24.43
2018-08-13T01:49:07.820Z,25.27
2018-08-13T01:51:36.468Z,26.17
2018-08-13T01:54:05.116Z,25.23
2018-08-13T01:56:33.749Z,24.03
2018-08-13T01:59:02.321Z,24.10
2018-08-13T02:01:31.099Z,25.33
2018-08-13T02:03:59.635Z,24.70
2018-08-13T02:06:28.268Z,26.10
2018-08-13T02:08:56.920Z,24.23
2018-08-13T02:11:25.594Z,23.33
2018-08-13T02:13:54.341Z,24.40
2018-08-13T02:16:23.036Z,24.47
2018-08-13T02:18:52.260Z,24.60
2018-08-13T02:21:21.199Z,26.63
2018-08-13T02:23:51.014Z,24.57
2018-08-13T02:26:19.830Z,25.03
2018-08-13T02:28:55.037Z,24.03
2018-08-13T02:31:23.809Z,24.10
2018-08-13T02:33:52.712Z,23.57
2018-08-13T02:36:21.614Z,25.93
2018-08-13T02:38:50.421Z,24.67
2018-08-13T02:41:19.289Z,24.60
2018-08-13T02:43:47.907Z,24.13
2018-08-13T02:46:16.548Z,23.70
2018-08-13T02:48:45.131Z,24.33
2018-08-13T02:51:13.732Z,23.33
2018-08-13T02:53:42.353Z,23.03
2018-08-13T02:56:10.997Z,24.00
2018-08-13T02:58:40.321Z,23.37
2018-08-13T03:01:09.154Z,24.47
2018-08-13T03:03:37.901Z,23.13
2018-08-13T03:06:06.864Z,24.00
2018-08-13T03:08:35.485Z,24.07
2018-08-13T03:11:04.101Z,24.53
2018-08-13T03:13:32.720Z,24.50
2018-08-13T03:16:01.316Z,24.50
2018-08-13T03:18:29.967Z,24.60
2018-08-13T03:20:58.573Z,22.43
2018-08-13T03:23:27.209Z,24.20
2018-08-13T03:25:56.509Z,24.53
2018-08-13T03:28:25.201Z,23.27
2018-08-13T03:30:54.101Z,23.90
2018-08-13T03:33:22.953Z,24.60
2018-08-13T03:35:51.726Z,23.47
2018-08-13T03:38:20.553Z,24.03
2018-08-13T03:40:49.315Z,23.43
2018-08-13T03:43:18.358Z,24.47
2018-08-13T03:45:47.124Z,22.87
2018-08-13T03:48:15.749Z,23.43
2018-08-13T03:50:44.389Z,24.63
2018-08-13T03:53:13.031Z,23.07
2018-08-13T03:55:41.624Z,23.87
2018-08-13T03:58:10.342Z,24.07
2018-08-13T04:00:39.105Z,30.27
2018-08-13T04:03:08.049Z,23.70
2018-08-13T04:05:36.802Z,24.87
2018-08-13T04:08:05.620Z,28.77
2018-08-13T04:10:34.316Z,29.13
2018-08-13T04:13:03.059Z,48.07
2018-08-13T04:15:31.679Z,47.93
2018-08-13T04:18:00.330Z,55.33
2018-08-13T04:20:28.916Z,52.23
2018-08-13T04:22:57.541Z,34.33
2018-08-13T04:25:26.237Z,49.27
2018-08-13T04:27:54.838Z,40.90
2018-08-13T04:30:23.422Z,51.27
2018-08-13T04:32:52.092Z,45.23
2018-08-13T04:35:20.676Z,43.97
2018-08-13T04:37:49.308Z,38.17
2018-08-13T04:40:18.741Z,44.07
2018-08-13T04:42:48.053Z,39.83
2018-08-13T04:45:16.701Z,34.90
2018-08-13T04:47:49.940Z,51.93
2018-08-13T04:50:18.584Z,57.87
2018-08-13T04:52:47.231Z,59.70
2018-08-13T04:55:15.905Z,62.23
2018-08-13T04:57:44.612Z,56.47
2018-08-13T05:00:13.181Z,49.73
2018-08-13T05:02:41.809Z,57.87
2018-08-13T05:05:11.460Z,60.00
2018-08-13T05:07:40.213Z,51.83
2018-08-13T05:10:10.313Z,62.60
2018-08-13T05:12:39.661Z,71.00
2018-08-13T05:15:09.407Z,115.80
2018-08-13T05:17:38.148Z,88.97
2018-08-13T05:20:08.160Z,65.43
2018-08-13T05:22:36.769Z,109.87
2018-08-13T05:25:06.605Z,105.07
2018-08-13T05:27:35.496Z,91.07
2018-08-13T05:30:05.501Z,1999.90
2018-08-13T05:32:34.029Z,1999.90
2018-08-13T05:35:02.629Z,737.47
2018-08-13T05:37:31.213Z,1999.90
2018-08-13T05:39:59.869Z,1360.67
2018-08-13T05:42:28.552Z,57.17
2018-08-13T05:44:57.161Z,86.17
2018-08-13T05:47:25.780Z,54.33
2018-08-13T05:49:54.361Z,46.80
2018-08-13T05:52:23.000Z,52.10
2018-08-13T05:54:51.565Z,1999.90
2018-08-13T05:57:20.257Z,38.83
2018-08-13T05:59:48.848Z,100.60
2018-08-13T06:02:18.203Z,1999.90
2018-08-13T06:04:47.017Z,1999.90
2018-08-13T06:07:15.621Z,1999.90
2018-08-13T06:09:44.224Z,1999.90
2018-08-13T06:12:12.816Z,1999.90
2018-08-13T06:14:41.465Z,1999.90
2018-08-13T06:17:10.116Z,1999.90
2018-08-13T06:19:38.764Z,1999.90
2018-08-13T06:22:07.412Z,1999.90
2018-08-13T06:24:36.045Z,1999.90
2018-08-13T06:27:04.640Z,1999.90
2018-08-13T06:29:33.253Z,1999.90
2018-08-13T06:32:01.853Z,1999.90
2018-08-13T06:34:30.425Z,1999.90
2018-08-13T06:36:59.040Z,1999.90
2018-08-13T06:39:27.625Z,1999.90
2018-08-13T06:41:56.224Z,1999.90
2018-08-13T06:44:24.857Z,1999.90
2018-08-13T06:46:53.432Z,1999.90
2018-08-13T06:49:22.049Z,1999.90
2018-08-13T06:51:50.657Z,1999.90
2018-08-13T06:54:19.245Z,1999.90
2018-08-13T06:56:47.901Z,1999.90
2018-08-13T06:59:16.469Z,1999.90
2018-08-13T07:01:45.150Z,1999.90
2018-08-13T07:04:13.741Z,1999.90
2018-08-13T07:06:42.334Z,1999.90
2018-08-13T07:09:11.657Z,1999.90
2018-08-13T07:11:40.249Z,1999.90
2018-08-13T07:14:08.906Z,1999.90
2018-08-13T07:16:37.673Z,1999.90
2018-08-13T07:19:06.517Z,1999.90
2018-08-13T07:21:35.097Z,1999.90
2018-08-13T07:24:03.844Z,1999.90
2018-08-13T07:26:32.441Z,1999.90
2018-08-13T07:29:01.068Z,1999.90
2018-08-13T07:31:29.633Z,1999.90
2018-08-13T07:33:58.272Z,1999.90
2018-08-13T07:36:27.577Z,1999.90
2018-08-13T07:38:56.269Z,1999.90
2018-08-13T07:41:24.889Z,1999.90
2018-08-13T07:43:53.480Z,1999.90
2018-08-13T07:46:22.109Z,1999.90
2018-08-13T07:48:50.668Z,1999.90
2018-08-13T07:51:19.310Z,1999.90
2018-08-13T07:53:47.885Z,1999.90
2018-08-13T07:56:16.530Z,1999.90
2018-08-13T07:58:46.175Z,1999.90
2018-08-13T08:01:14.872Z,1999.90
2018-08-13T08:03:43.524Z,1999.90
2018-08-13T08:06:12.208Z,1999.90
2018-08-13T08:08:40.772Z,1999.90
2018-08-13T08:11:09.436Z,1999.90
2018-08-13T08:13:38.023Z,1999.90
2018-08-13T08:16:06.685Z,1999.90
2018-08-13T08:18:35.594Z,1999.90
2018-08-13T08:21:04.340Z,1999.90
2018-08-13T08:23:33.033Z,1999.90
2018-08-13T08:26:01.669Z,1999.90
2018-08-13T08:28:30.873Z,1999.90
2018-08-13T08:30:59.521Z,1999.90
2018-08-13T08:33:28.141Z,1999.90
2018-08-13T08:35:56.740Z,1999.90
2018-08-13T08:38:25.381Z,1999.90
2018-08-13T08:40:54.079Z,1999.90
2018-08-13T08:43:22.709Z,1999.90
2018-08-13T08:45:51.546Z,1999.90
2018-08-13T08:48:20.889Z,1999.90
2018-08-13T08:50:49.580Z,1999.90
2018-08-13T08:53:18.185Z,1999.90
2018-08-13T08:55:46.830Z,1999.90
2018-08-13T08:58:15.424Z,1999.90
2018-08-13T09:00:44.039Z,1999.90
2018-08-13T09:03:12.633Z,1999.90
2018-08-13T09:05:41.297Z,1999.90
2018-08-13T09:08:09.921Z,1999.90
2018-08-13T09:10:38.490Z,1999.90
2018-08-13T09:13:07.141Z,1999.90
2018-08-13T09:15:35.893Z,1999.90
2018-08-13T09:18:15.553Z,1999.90
2018-08-13T09:20:55.794Z,1999.90
2018-08-13T09:23:35.412Z,1999.90
2018-08-13T09:26:15.197Z,1999.90
2018-08-13T09:28:54.859Z,1999.90
2018-08-13T09:31:34.636Z,1999.90
2018-08-13T09:34:14.114Z,1999.90
2018-08-13T09:36:42.816Z,1999.90
2018-08-13T09:39:11.672Z,1999.90
2018-08-13T09:41:40.278Z,1999.90
2018-08-13T09:44:08.921Z,1999.90
2018-08-13T09:46:37.505Z,1999.90
2018-08-13T09:49:06.145Z,1999.90
2018-08-13T09:51:34.894Z,1999.90
2018-08-13T09:54:03.645Z,1999.90
2018-08-13T09:56:32.226Z,1999.90
2018-08-13T09:59:00.832Z,1999.90
2018-08-13T10:01:29.428Z,1999.90
2018-08-13T10:03:58.062Z,1999.90
2018-08-13T10:06:26.698Z,1999.90
2018-08-13T10:08:55.328Z,1999.90
2018-08-13T10:11:23.917Z,1999.90
2018-08-13T10:13:52.539Z,1999.90
2018-08-13T10:16:21.172Z,1999.90
2018-08-13T10:18:49.797Z,1999.90
2018-08-13T10:21:18.393Z,1999.90
2018-08-13T10:23:47.041Z,1999.90
2018-08-13T10:26:15.669Z,1999.90
2018-08-13T10:28:44.253Z,1999.90
2018-08-13T10:31:13.569Z,1999.90
2018-08-13T10:33:42.194Z,1999.90
2018-08-13T10:36:10.821Z,1999.90
2018-08-13T10:38:39.409Z,1999.90
2018-08-13T10:41:08.013Z,1999.90
2018-08-13T10:43:36.615Z,703.37
2018-08-13T10:46:05.248Z,1999.90
2018-08-13T10:48:33.819Z,1999.90
2018-08-13T10:51:02.397Z,1999.90
2018-08-13T10:53:30.962Z,1999.90
2018-08-13T10:55:59.656Z,1999.90
2018-08-13T10:58:28.200Z,1999.90
2018-08-13T11:00:56.789Z,1999.90
2018-08-13T11:03:26.085Z,1999.90
2018-08-13T11:05:54.765Z,1999.90
2018-08-13T11:08:23.404Z,1999.90
2018-08-13T11:10:52.154Z,1999.90
2018-08-13T11:13:21.080Z,699.37
2018-08-13T11:15:49.665Z,51.97
2018-08-13T11:18:18.332Z,57.77
2018-08-13T11:20:46.953Z,60.20
2018-08-13T11:23:15.561Z,58.90
2018-08-13T11:25:44.158Z,59.20
2018-08-13T11:28:12.780Z,58.30
2018-08-13T11:30:41.390Z,53.77
2018-08-13T11:33:10.044Z,55.03
2018-08-13T11:35:38.705Z,57.80
2018-08-13T11:38:07.341Z,57.47
2018-08-13T11:40:35.954Z,57.07
2018-08-13T11:43:04.585Z,58.70
2018-08-13T11:45:33.192Z,1352.90
2018-08-13T11:48:01.868Z,53.57
2018-08-13T11:50:30.585Z,62.90
2018-08-13T11:52:59.185Z,706.07
2018-08-13T11:55:27.853Z,64.13
2018-08-13T11:57:56.497Z,1999.90
2018-08-13T12:00:25.136Z,61.93
2018-08-13T12:02:53.766Z,47.50
2018-08-13T12:05:22.349Z,62.93
2018-08-13T12:07:51.673Z,51.57
2018-08-13T12:10:20.817Z,40.03
2018-08-13T12:12:49.460Z,35.87
2018-08-13T12:15:18.033Z,44.07
2018-08-13T12:17:46.697Z,32.90
2018-08-13T12:20:17.692Z,43.73
2018-08-13T12:22:46.762Z,42.35
2018-08-13T12:25:22.944Z,29.82
2018-08-13T12:27:51.677Z,44.27
2018-08-13T12:30:20.332Z,47.30
2018-08-13T12:32:49.881Z,48.23
2018-08-13T12:35:19.036Z,53.23
2018-08-13T12:37:47.665Z,57.17
2018-08-13T12:40:16.272Z,74.83
2018-08-13T12:42:44.967Z,1999.90
2018-08-13T12:45:14.916Z,1999.90
2018-08-13T12:47:43.586Z,1999.90
2018-08-13T12:50:14.560Z,1999.90
2018-08-13T12:52:44.720Z,1999.90
2018-08-13T12:55:13.741Z,1999.90
2018-08-13T12:57:42.557Z,1999.90
2018-08-13T13:00:14.816Z,1999.90
2018-08-13T13:02:43.674Z,1999.90
2018-08-13T13:05:13.836Z,1999.90
2018-08-13T13:07:42.462Z,1999.90
2018-08-13T13:10:13.151Z,1999.90
2018-08-13T13:12:42.283Z,1999.90
2018-08-13T13:15:13.285Z,1999.90
2018-08-13T13:17:42.230Z,1999.90
2018-08-13T13:20:15.000Z,1999.90
2018-08-13T13:22:43.651Z,1999.90
2018-08-13T13:25:12.236Z,1999.90
2018-08-13T13:27:40.872Z,1999.90
2018-08-13T13:30:13.273Z,1999.90
2018-08-13T13:32:42.233Z,1999.90
2018-08-13T13:35:12.441Z,1999.90
2018-08-13T13:37:41.091Z,1999.90
2018-08-13T13:40:11.579Z,1999.90
2018-08-13T13:42:40.445Z,1999.90
2018-08-13T13:45:10.152Z,1999.90
2018-08-13T13:47:39.128Z,1999.90
2018-08-13T13:50:09.474Z,1999.90
2018-08-13T13:52:38.077Z,1999.90
2018-08-13T13:55:07.115Z,1999.90
2018-08-13T13:57:35.741Z,1999.90
2018-08-13T14:00:06.343Z,1999.90
2018-08-13T14:02:34.932Z,1999.90
2018-08-13T14:05:05.157Z,1999.90
2018-08-13T14:07:33.733Z,1999.90
2018-08-13T14:10:02.457Z,701.97
2018-08-13T14:12:31.181Z,1999.90
2018-08-13T14:14:59.841Z,1999.90
2018-08-13T14:17:28.593Z,51.03
2018-08-13T14:19:57.269Z,1353.37
2018-08-13T14:22:25.913Z,1999.90
2018-08-13T14:24:54.571Z,48.70
2018-08-13T14:27:23.261Z,53.90
2018-08-13T14:29:51.841Z,53.70
2018-08-13T14:32:20.467Z,57.67
2018-08-13T14:34:49.288Z,61.60
2018-08-13T14:37:17.785Z,52.83
2018-08-13T14:39:46.420Z,39.30
2018-08-13T14:42:15.008Z,1999.90
2018-08-13T14:44:43.760Z,1999.90
2018-08-13T14:47:12.409Z,1999.90
2018-08-13T14:49:41.029Z,1999.90
2018-08-13T14:52:09.626Z,1999.90
2018-08-13T14:54:38.361Z,1999.90
2018-08-13T14:57:06.973Z,49.00
2018-08-13T14:59:35.615Z,1999.90
2018-08-13T15:02:04.272Z,1999.90
2018-08-13T15:04:32.878Z,1999.90
2018-08-13T15:07:01.482Z,56.53
2018-08-13T15:09:30.045Z,46.10
2018-08-13T15:11:58.669Z,47.57
2018-08-13T15:14:27.236Z,1999.90
2018-08-13T15:16:55.840Z,50.00
2018-08-13T15:19:24.525Z,1999.90
2018-08-13T15:21:53.152Z,52.17
2018-08-13T15:24:21.764Z,50.73
2018-08-13T15:26:50.353Z,51.03
2018-08-13T15:29:18.969Z,65.33
2018-08-13T15:31:47.521Z,64.77
2018-08-13T15:34:16.164Z,61.33
2018-08-13T15:36:44.787Z,58.70
2018-08-13T15:39:14.052Z,58.07
2018-08-13T15:41:42.666Z,61.90
2018-08-13T15:44:11.249Z,60.40
2018-08-13T15:46:39.900Z,60.50
2018-08-13T15:49:08.613Z,52.73
2018-08-13T15:51:37.196Z,60.17
2018-08-13T15:54:05.805Z,707.00
2018-08-13T15:56:34.392Z,54.13
2018-08-13T15:59:03.007Z,55.97
2018-08-13T16:01:31.617Z,53.07
2018-08-13T16:04:00.305Z,44.93
2018-08-13T16:06:28.919Z,41.33
2018-08-13T16:08:57.481Z,42.10
2018-08-13T16:11:26.046Z,44.73
2018-08-13T16:13:54.745Z,43.17
2018-08-13T16:16:23.333Z,42.50
2018-08-13T16:18:51.954Z,41.47
2018-08-13T16:21:20.629Z,46.10
2018-08-13T16:23:49.373Z,52.63
2018-08-13T16:26:17.973Z,54.97
2018-08-13T16:28:46.587Z,52.77
2018-08-13T16:31:15.173Z,46.00
2018-08-13T16:33:43.964Z,47.23
2018-08-13T16:36:12.553Z,51.07
2018-08-13T16:38:41.140Z,58.33
2018-08-13T16:41:09.799Z,55.83
2018-08-13T16:43:38.372Z,54.63
2018-08-13T16:46:07.079Z,56.20
2018-08-13T16:48:35.704Z,53.83
2018-08-13T16:51:04.332Z,57.37
2018-08-13T16:53:32.965Z,55.40
2018-08-13T16:56:01.644Z,50.30
2018-08-13T16:58:30.256Z,59.13
2018-08-13T17:00:58.847Z,50.60
2018-08-13T17:03:27.489Z,54.87
2018-08-13T17:05:56.041Z,55.93
2018-08-13T17:08:24.653Z,53.70
2018-08-13T17:10:53.287Z,50.07
2018-08-13T17:13:21.943Z,41.03
2018-08-13T17:15:50.585Z,38.30
2018-08-13T17:18:19.220Z,41.73
2018-08-13T17:20:47.904Z,40.87
2018-08-13T17:23:16.549Z,43.87
2018-08-13T17:25:45.145Z,46.67
2018-08-13T17:28:13.886Z,40.70
2018-08-13T17:30:42.436Z,40.23
2018-08-13T17:33:11.273Z,42.77
2018-08-13T17:35:39.972Z,47.00
2018-08-13T17:38:10.131Z,42.87
2018-08-13T17:40:38.905Z,42.30
2018-08-13T17:43:09.371Z,38.20
2018-08-13T17:45:38.254Z,34.80
2018-08-13T17:48:08.812Z,35.73
2018-08-13T17:50:37.641Z,34.90
2018-08-13T17:53:07.697Z,34.40
2018-08-13T17:55:36.273Z,37.67
2018-08-13T17:58:04.929Z,36.37
2018-08-13T18:00:33.524Z,37.60
2018-08-13T18:03:02.180Z,35.63
2018-08-13T18:05:30.767Z,34.60
2018-08-13T18:07:59.432Z,34.93
2018-08-13T18:10:30.269Z,36.77
2018-08-13T18:13:00.290Z,33.77
2018-08-13T18:15:28.964Z,34.17
2018-08-13T18:17:57.649Z,36.63
2018-08-13T18:20:26.319Z,34.00
2018-08-13T18:22:54.921Z,29.53
2018-08-13T18:25:23.538Z,34.90
2018-08-13T18:27:52.810Z,29.07
2018-08-13T18:30:23.647Z,33.37
2018-08-13T18:32:52.805Z,29.07
2018-08-13T18:35:21.439Z,30.33
2018-08-13T18:37:50.100Z,34.10
2018-08-13T18:40:21.993Z,31.80
2018-08-13T18:42:50.772Z,29.90
2018-08-13T18:45:19.416Z,30.73
2018-08-13T18:47:48.758Z,27.70
2018-08-13T18:50:19.618Z,29.27
2018-08-13T18:52:48.283Z,28.83
2018-08-13T18:55:18.381Z,29.30
2018-08-13T18:57:48.365Z,27.20
2018-08-13T19:00:21.103Z,26.60
2018-08-13T19:02:49.813Z,28.13
2018-08-13T19:05:19.309Z,29.80
2018-08-13T19:07:48.249Z,27.40
2018-08-13T19:10:17.578Z,28.57
2018-08-13T19:12:46.201Z,29.30
2018-08-13T19:15:17.662Z,26.20
2018-08-13T19:17:46.341Z,37.07
2018-08-13T19:20:15.288Z,34.53
2018-08-13T19:22:45.094Z,28.87
2018-08-13T19:25:16.552Z,38.80
2018-08-13T19:27:45.336Z,42.13
2018-08-13T19:30:15.584Z,42.87
2018-08-13T19:32:45.177Z,39.43
2018-08-13T19:35:13.799Z,39.90
2018-08-13T19:37:42.769Z,47.77
2018-08-13T19:40:15.165Z,40.60
2018-08-13T19:42:44.652Z,46.90
2018-08-13T19:45:14.593Z,47.27
2018-08-13T19:47:43.491Z,46.37
2018-08-13T19:50:12.571Z,48.63
2018-08-13T19:52:42.653Z,48.13
2018-08-13T19:55:11.792Z,47.73
2018-08-13T19:57:40.609Z,47.73
2018-08-13T20:00:15.797Z,46.20
2018-08-13T20:02:44.500Z,47.23
2018-08-13T20:05:13.221Z,45.20
2018-08-13T20:07:41.901Z,45.83
2018-08-13T20:10:12.617Z,47.97
2018-08-13T20:12:41.680Z,45.63
2018-08-13T20:15:10.525Z,49.37
2018-08-13T20:17:39.426Z,46.43
2018-08-13T20:20:11.121Z,45.27
2018-08-13T20:22:39.748Z,49.13
2018-08-13T20:25:10.104Z,49.13
2018-08-13T20:27:39.127Z,50.27
2018-08-13T20:30:09.809Z,49.80
2018-08-13T20:32:38.770Z,60.43
2018-08-13T20:35:07.389Z,49.87
2018-08-13T20:37:35.968Z,67.37
2018-08-13T20:40:05.114Z,51.23
2018-08-13T20:42:33.692Z,49.27
2018-08-13T20:45:02.282Z,50.40
2018-08-13T20:47:30.870Z,49.70
2018-08-13T20:49:59.520Z,68.33
2018-08-13T20:52:28.283Z,65.53
2018-08-13T20:54:57.097Z,55.40
2018-08-13T20:57:25.703Z,1999.90
2018-08-13T20:59:54.365Z,1356.63
2018-08-13T21:02:23.029Z,1999.90
2018-08-13T21:04:51.649Z,1999.90
2018-08-13T21:07:20.845Z,1999.90
2018-08-13T21:09:49.544Z,1999.90
2018-08-13T21:12:18.180Z,1354.13
2018-08-13T21:14:46.795Z,1999.90
2018-08-13T21:17:15.392Z,55.37
2018-08-13T21:19:44.013Z,1999.90
2018-08-13T21:22:12.649Z,1999.90
2018-08-13T21:24:41.672Z,1999.90
2018-08-13T21:27:10.394Z,56.50
2018-08-13T21:29:39.043Z,1999.90
2018-08-13T21:32:08.037Z,1999.90
2018-08-13T21:34:36.626Z,1999.90
2018-08-13T21:37:05.277Z,1999.90
2018-08-13T21:39:33.943Z,1999.90
2018-08-13T21:42:03.257Z,1999.90
2018-08-13T21:44:31.984Z,1999.90
2018-08-13T21:47:00.622Z,1999.90
2018-08-13T21:49:29.257Z,1999.90
2018-08-13T21:51:57.952Z,1999.90
2018-08-13T21:54:26.535Z,1999.90
2018-08-13T21:56:55.136Z,1999.90
2018-08-13T21:59:23.757Z,1999.90
2018-08-13T22:01:54.015Z,1999.90
2018-08-13T22:04:22.648Z,1999.90
2018-08-13T22:06:51.319Z,1999.90
2018-08-13T22:09:20.078Z,1999.90
2018-08-13T22:11:48.725Z,1999.90
2018-08-13T22:14:17.337Z,1999.90
2018-08-13T22:16:45.978Z,1999.90
2018-08-13T22:19:15.522Z,1999.90
2018-08-13T22:21:44.909Z,1999.90
2018-08-13T22:24:24.762Z,1999.90
2018-08-13T22:26:53.409Z,1999.90
2018-08-13T22:29:22.121Z,1999.90
2018-08-13T22:31:50.781Z,1999.90
2018-08-13T22:34:19.443Z,1999.90
2018-08-13T22:36:48.061Z,1999.90
2018-08-13T22:39:16.625Z,1999.90
2018-08-13T22:41:45.337Z,1999.90
2018-08-13T22:44:13.946Z,1999.90
2018-08-13T22:46:42.549Z,1999.90
2018-08-13T22:49:11.125Z,1999.90
2018-08-13T22:51:39.721Z,1999.90
2018-08-13T22:54:08.345Z,1999.90
2018-08-13T22:56:37.013Z,1999.90
2018-08-13T22:59:05.654Z,1999.90
2018-08-13T23:01:34.285Z,1999.90
2018-08-13T23:04:02.993Z,1999.90
2018-08-13T23:06:31.625Z,1999.90
2018-08-13T23:09:00.261Z,1999.90
2018-08-13T23:11:29.829Z,1999.90
2018-08-13T23:13:58.490Z,1999.90
2018-08-13T23:16:27.100Z,1999.90
2018-08-13T23:18:55.699Z,1999.90
2018-08-13T23:21:24.457Z,1999.90
2018-08-13T23:23:53.153Z,1999.90
2018-08-13T23:26:21.777Z,1999.90
2018-08-13T23:28:50.393Z,1999.90
2018-08-13T23:31:18.965Z,1999.90
2018-08-13T23:33:47.577Z,1999.90
2018-08-13T23:36:16.173Z,1999.90
2018-08-13T23:38:44.797Z,1999.90
2018-08-13T23:41:13.442Z,1999.90
2018-08-13T23:43:42.051Z,1999.90
2018-08-13T23:46:10.640Z,1999.90
2018-08-13T23:48:39.305Z,1999.90
2018-08-13T23:51:08.597Z,1999.90
2018-08-13T23:53:37.265Z,1999.90
2018-08-13T23:56:05.933Z,1999.90
2018-08-13T23:58:34.517Z,1999.90
